Time;durP1;ratioP1;P1;durP2;ratioP2;P2;SDS_P1;SDS_P2;PMS_P1;PMS_P2;Temp;Humidity;BMP_temperature;BMP_pressure;BME280_temperature;BME280_humidity;BME280_pressure;Samples;Min_cycle;Max_cycle;Signal;HPM_P1;HPM_P2
2022/08/21 00:01:59;;;;;;;10.32;5.13;;;14.30;99.90;;;;;;5007529;28;20045;-68
2022/08/21 00:04:25;;;;;;;10.18;5.57;;;14.30;99.90;;;;;;5004562;28;20073;-68
2022/08/21 00:06:51;;;;;;;12.07;5.60;;;14.30;99.90;;;;;;4992796;28;20116;-68
2022/08/21 00:09:18;;;;;;;9.45;5.63;;;14.30;99.90;;;;;;5001509;28;20061;-67
2022/08/21 00:11:44;;;;;;;9.65;5.15;;;14.30;99.90;;;;;;5008241;28;20069;-68
2022/08/21 00:14:10;;;;;;;9.20;4.75;;;14.30;99.90;;;;;;5007694;28;20112;-68
2022/08/21 00:16:36;;;;;;;10.48;5.00;;;14.30;99.90;;;;;;4993758;28;20073;-68
2022/08/21 00:19:03;;;;;;;9.98;5.30;;;14.40;99.90;;;;;;5004771;28;20555;-67
2022/08/21 00:21:29;;;;;;;9.85;5.05;;;14.40;99.90;;;;;;5004450;28;20049;-67
2022/08/21 00:23:54;;;;;;;9.43;4.68;;;14.40;99.90;;;;;;5005046;28;20061;-68
2022/08/21 00:26:20;;;;;;;9.32;5.10;;;14.30;99.90;;;;;;4996911;28;20057;-67
2022/08/21 00:28:48;;;;;;;10.60;5.22;;;14.40;99.90;;;;;;4996721;28;20053;-68
2022/08/21 00:31:15;;;;;;;12.93;5.38;;;14.30;99.90;;;;;;5003779;28;20089;-68
2022/08/21 00:33:41;;;;;;;12.50;5.30;;;14.30;99.90;;;;;;5001239;28;20492;-68
2022/08/21 00:36:07;;;;;;;12.13;5.65;;;14.30;99.90;;;;;;4999797;28;20156;-69
2022/08/21 00:38:33;;;;;;;13.27;5.57;;;14.60;99.90;;;;;;4994645;28;20141;-67
2022/08/21 00:41:03;;;;;;;9.23;5.35;;;14.30;99.90;;;;;;5000504;28;20058;-68
2022/08/21 00:43:33;;;;;;;13.25;5.32;;;14.30;99.90;;;;;;4999330;28;20052;-68
2022/08/21 00:46:00;;;;;;;13.88;5.50;;;14.40;99.90;;;;;;5010778;28;20068;-68
2022/08/21 00:48:26;;;;;;;9.07;5.43;;;14.40;99.90;;;;;;4987685;28;20049;-68
2022/08/21 00:51:15;;;;;;;12.93;5.78;;;14.40;99.90;;;;;;5003439;28;20382;-68
2022/08/21 00:53:43;;;;;;;10.50;5.75;;;14.40;99.90;;;;;;5001485;28;20045;-68
2022/08/21 00:56:12;;;;;;;13.10;5.88;;;14.40;99.90;;;;;;5000036;28;20061;-68
2022/08/21 00:58:41;;;;;;;13.48;5.88;;;14.40;99.90;;;;;;4994639;28;20556;-68
2022/08/21 01:01:08;;;;;;;13.60;5.60;;;14.40;99.90;;;;;;5000825;28;20077;-68
2022/08/21 01:03:35;;;;;;;10.82;5.80;;;14.40;99.90;;;;;;5003432;28;20050;-68
2022/08/21 01:06:01;;;;;;;11.75;5.32;;;14.40;99.90;;;;;;5006252;28;20158;-68
2022/08/21 01:08:29;;;;;;;11.27;5.85;;;14.40;99.90;;;;;;4987888;28;20139;-67
2022/08/21 01:10:56;;;;;;;8.50;5.28;;;14.40;99.90;;;;;;5003398;28;20474;-68
2022/08/21 01:13:24;;;;;;;10.98;5.93;;;14.40;99.90;;;;;;5002643;28;20570;-68
2022/08/21 01:15:52;;;;;;;9.32;5.55;;;14.30;99.90;;;;;;5006418;28;20049;-67
2022/08/21 01:18:18;;;;;;;8.35;5.47;;;14.30;99.90;;;;;;4993499;28;20046;-68
2022/08/21 01:21:06;;;;;;;11.13;5.32;;;14.20;99.90;;;;;;5007214;28;20042;-68
2022/08/21 01:23:33;;;;;;;8.95;5.10;;;14.10;99.90;;;;;;4997980;28;20080;-68
2022/08/21 01:25:59;;;;;;;9.23;4.85;;;13.80;99.90;;;;;;5004144;28;20049;-68
2022/08/21 01:28:24;;;;;;;7.40;4.90;;;13.60;99.90;;;;;;4989703;28;20761;-67
2022/08/21 01:30:52;;;;;;;8.77;4.97;;;13.60;99.90;;;;;;5001105;28;20808;-68
2022/08/21 01:33:21;;;;;;;12.55;5.43;;;13.40;99.90;;;;;;5002261;28;20105;-67
2022/08/21 01:35:47;;;;;;;10.95;5.78;;;13.40;99.90;;;;;;5005103;28;20125;-67
2022/08/21 01:38:12;;;;;;;15.95;7.03;;;13.50;99.90;;;;;;4984764;28;20522;-68
2022/08/21 01:40:38;;;;;;;17.15;7.05;;;13.60;99.90;;;;;;4999713;28;20054;-68
2022/08/21 01:43:04;;;;;;;11.80;6.90;;;13.70;99.90;;;;;;5003633;28;20053;-67
2022/08/21 01:45:30;;;;;;;14.70;7.05;;;13.70;99.90;;;;;;5005442;28;20050;-67
2022/08/21 01:47:56;;;;;;;17.58;7.70;;;13.70;99.90;;;;;;4987783;28;20046;-67
2022/08/21 01:50:22;;;;;;;14.23;7.18;;;13.70;99.90;;;;;;5006036;28;20053;-68
2022/08/21 01:52:49;;;;;;;12.88;7.38;;;13.80;99.90;;;;;;5002440;28;20518;-68
2022/08/21 01:55:17;;;;;;;14.95;6.97;;;13.70;99.90;;;;;;5006720;28;20433;-67
2022/08/21 01:57:44;;;;;;;14.30;6.78;;;13.80;99.90;;;;;;4987570;28;20137;-68
2022/08/21 02:00:11;;;;;;;13.95;7.47;;;13.80;99.90;;;;;;5004496;28;20042;-67
2022/08/21 02:02:38;;;;;;;15.60;7.00;;;13.80;99.90;;;;;;5000372;28;20489;-67
2022/08/21 02:05:05;;;;;;;11.55;6.82;;;13.80;99.90;;;;;;5002187;28;20052;-67
2022/08/21 02:07:47;;;;;;;15.02;7.22;;;13.80;99.90;;;;;;4988740;28;20034;-67
2022/08/21 02:10:18;;;;;;;11.95;6.95;;;13.80;99.90;;;;;;5003918;28;20046;-67
2022/08/21 02:12:44;;;;;;;12.90;7.10;;;13.70;99.90;;;;;;4998421;28;20141;-68
2022/08/21 02:15:09;;;;;;;16.98;7.65;;;13.70;99.90;;;;;;5002195;28;20481;-67
2022/08/21 02:17:54;;;;;;;18.30;6.95;;;13.80;99.90;;;;;;4986928;28;20566;-68
2022/08/21 02:20:28;;;;;;;9.93;6.85;;;13.80;99.90;;;;;;5000219;28;20524;-68
2022/08/21 02:22:54;;;;;;;11.45;7.68;;;13.80;99.90;;;;;;4999601;28;20787;-68
2022/08/21 02:25:22;;;;;;;15.65;7.63;;;13.80;99.90;;;;;;4999452;28;20065;-68
2022/08/21 02:27:48;;;;;;;12.85;7.45;;;13.90;99.90;;;;;;4991914;28;20042;-67
2022/08/21 02:30:18;;;;;;;13.48;7.50;;;13.80;99.90;;;;;;5009084;28;20081;-68
2022/08/21 02:32:44;;;;;;;16.38;7.75;;;13.80;99.90;;;;;;5006907;28;20076;-68
2022/08/21 02:35:11;;;;;;;13.60;7.88;;;13.80;99.90;;;;;;4983315;28;20088;-68
2022/08/21 02:37:55;;;;;;;19.33;8.07;;;13.80;99.90;;;;;;4988318;28;20096;-68
2022/08/21 02:40:24;;;;;;;13.93;7.70;;;13.70;99.90;;;;;;5009383;28;20144;-67
2022/08/21 02:42:50;;;;;;;14.65;7.82;;;13.70;99.90;;;;;;5020776;28;20516;-67
2022/08/21 02:45:17;;;;;;;17.52;8.80;;;13.60;99.90;;;;;;5004451;28;20515;-68
2022/08/21 02:48:00;;;;;;;17.50;8.95;;;13.70;99.90;;;;;;5006965;28;20045;-68
2022/08/21 02:50:33;;;;;;;15.95;8.32;;;13.70;99.90;;;;;;4998826;28;20053;-68
2022/08/21 02:52:59;;;;;;;14.48;8.73;;;13.70;99.90;;;;;;5024969;28;20045;-68
2022/08/21 02:55:27;;;;;;;14.88;8.43;;;13.70;99.90;;;;;;5023752;28;20052;-68
2022/08/21 02:57:54;;;;;;;17.65;9.20;;;13.70;99.90;;;;;;4988353;28;20117;-68
2022/08/21 03:00:22;;;;;;;15.35;9.15;;;13.70;99.90;;;;;;5004368;28;20076;-67
2022/08/21 03:02:48;;;;;;;14.15;8.98;;;13.60;99.90;;;;;;5020578;28;20050;-67
2022/08/21 03:05:15;;;;;;;13.65;8.32;;;13.60;99.90;;;;;;5023348;28;20112;-68
2022/08/21 03:07:43;;;;;;;20.35;9.68;;;13.60;99.90;;;;;;5004681;28;20034;-68
2022/08/21 03:10:10;;;;;;;24.65;10.05;;;13.60;99.90;;;;;;4988180;28;20729;-67
2022/08/21 03:12:36;;;;;;;15.85;9.70;;;13.50;99.90;;;;;;5014412;28;20058;-68
2022/08/21 03:15:12;;;;;;;16.20;9.88;;;13.60;99.90;;;;;;5003824;28;20061;-68
2022/08/21 03:17:38;;;;;;;20.58;9.82;;;13.50;99.90;;;;;;4985507;28;20910;-68
2022/08/21 03:20:07;;;;;;;18.73;9.63;;;13.50;99.90;;;;;;5002770;28;20153;-68
2022/08/21 03:22:33;;;;;;;14.30;9.60;;;13.50;99.90;;;;;;5017468;28;20046;-68
2022/08/21 03:24:59;;;;;;;17.13;9.93;;;13.50;99.90;;;;;;5022548;28;20049;-68
2022/08/21 03:27:26;;;;;;;15.57;10.10;;;13.50;99.90;;;;;;5008673;28;20129;-68
2022/08/21 03:29:52;;;;;;;17.05;10.32;;;13.50;99.90;;;;;;5019608;28;20050;-68
2022/08/21 03:32:19;;;;;;;17.70;10.55;;;13.50;99.90;;;;;;4986268;28;20046;-67
2022/08/21 03:34:45;;;;;;;17.40;10.52;;;13.50;99.90;;;;;;5022686;28;20079;-68
2022/08/21 03:37:11;;;;;;;16.92;9.90;;;13.50;99.90;;;;;;4975047;28;20076;-68
2022/08/21 03:39:37;;;;;;;15.25;9.93;;;13.50;99.90;;;;;;4991011;28;20504;-68
2022/08/21 03:42:04;;;;;;;16.25;9.75;;;13.50;99.90;;;;;;5022304;28;20057;-68
2022/08/21 03:44:30;;;;;;;16.20;10.45;;;13.50;99.90;;;;;;5001505;28;20563;-68
2022/08/21 03:46:56;;;;;;;16.65;10.88;;;13.50;99.90;;;;;;4988673;28;20049;-69
2022/08/21 03:49:22;;;;;;;22.35;10.38;;;13.50;99.90;;;;;;5004239;28;20046;-68
2022/08/21 03:51:48;;;;;;;16.55;10.25;;;13.60;99.90;;;;;;5001073;28;20515;-68
2022/08/21 03:54:13;;;;;;;16.10;9.35;;;13.50;99.90;;;;;;5021452;28;20121;-68
2022/08/21 03:56:39;;;;;;;13.80;10.05;;;13.50;99.90;;;;;;5008371;28;20042;-68
2022/08/21 03:59:05;;;;;;;15.07;10.40;;;13.70;99.90;;;;;;5010442;28;20040;-68
2022/08/21 04:01:32;;;;;;;17.85;9.55;;;13.50;99.90;;;;;;5004723;28;20053;-68
2022/08/21 04:03:58;;;;;;;17.90;10.23;;;13.50;99.90;;;;;;5020420;28;20045;-68
2022/08/21 04:06:24;;;;;;;19.92;10.75;;;13.50;99.90;;;;;;5009431;28;20049;-68
2022/08/21 04:08:50;;;;;;;15.93;10.07;;;13.50;99.90;;;;;;5017574;28;20049;-68
2022/08/21 04:11:16;;;;;;;16.27;9.80;;;13.60;99.90;;;;;;5024007;28;20037;-68
2022/08/21 04:13:41;;;;;;;21.50;10.30;;;13.50;99.90;;;;;;5002534;28;20072;-68
2022/08/21 04:16:07;;;;;;;16.50;10.60;;;13.60;99.90;;;;;;5016441;28;20315;-68
2022/08/21 04:18:33;;;;;;;15.93;9.63;;;13.60;99.90;;;;;;5012134;28;20459;-68
2022/08/21 04:21:01;;;;;;;17.50;10.20;;;13.50;99.90;;;;;;5022573;28;20045;-68
2022/08/21 04:23:27;;;;;;;22.30;10.63;;;13.50;99.90;;;;;;4998310;28;20085;-68
2022/08/21 04:25:54;;;;;;;16.73;10.38;;;13.50;99.90;;;;;;4998674;28;20046;-69
2022/08/21 04:28:21;;;;;;;16.33;10.07;;;13.50;99.90;;;;;;5007103;28;20051;-68
2022/08/21 04:30:47;;;;;;;14.70;9.65;;;13.50;99.90;;;;;;5022741;28;20118;-67
2022/08/21 04:33:13;;;;;;;14.65;9.85;;;13.50;99.90;;;;;;5002621;28;20084;-67
2022/08/21 04:35:39;;;;;;;16.85;10.13;;;13.50;99.90;;;;;;5022023;28;20045;-68
2022/08/21 04:38:04;;;;;;;15.88;9.38;;;13.60;99.90;;;;;;5005635;28;20050;-68
2022/08/21 04:40:30;;;;;;;20.33;10.10;;;13.50;99.90;;;;;;5024661;28;20054;-68
2022/08/21 04:43:00;;;;;;;19.75;9.95;;;13.50;99.90;;;;;;5022273;28;20133;-67
2022/08/21 04:45:35;;;;;;;20.58;10.20;;;13.50;99.90;;;;;;5007970;28;20045;-68
2022/08/21 04:48:03;;;;;;;18.23;10.07;;;13.60;99.90;;;;;;5005125;28;20493;-68
2022/08/21 04:50:39;;;;;;;17.15;9.25;;;13.60;99.90;;;;;;5024769;28;20053;-68
2022/08/21 04:53:13;;;;;;;16.00;9.45;;;13.60;99.90;;;;;;5007189;28;20099;-68
2022/08/21 04:55:41;;;;;;;18.67;9.65;;;13.70;99.90;;;;;;5004471;28;20065;-68
2022/08/21 04:58:11;;;;;;;18.70;9.52;;;13.70;99.90;;;;;;4988258;28;20708;-68
2022/08/21 05:00:37;;;;;;;17.00;8.98;;;13.70;99.90;;;;;;5022076;28;20114;-68
2022/08/21 05:03:05;;;;;;;16.15;8.48;;;13.70;99.90;;;;;;5003887;28;20069;-68
2022/08/21 05:05:31;;;;;;;13.35;8.68;;;13.70;99.90;;;;;;5026717;28;20045;-68
2022/08/21 05:07:59;;;;;;;14.25;8.75;;;13.80;99.90;;;;;;5009813;28;20049;-67
2022/08/21 05:10:26;;;;;;;19.13;9.05;;;13.80;99.90;;;;;;5027224;28;20053;-67
2022/08/21 05:12:51;;;;;;;15.70;9.00;;;13.90;99.90;;;;;;5022069;28;20041;-68
2022/08/21 05:15:17;;;;;;;15.90;9.10;;;13.90;99.90;;;;;;5022116;28;20239;-68
2022/08/21 05:17:43;;;;;;;15.60;8.57;;;13.90;99.90;;;;;;5003664;28;20061;-68
2022/08/21 05:20:11;;;;;;;15.80;8.95;;;14.00;99.90;;;;;;5021949;28;20057;-68
2022/08/21 05:22:37;;;;;;;14.32;8.32;;;14.00;99.90;;;;;;5024159;28;20650;-68
2022/08/21 05:25:03;;;;;;;18.58;9.00;;;14.00;99.90;;;;;;5022970;28;20045;-68
2022/08/21 05:27:29;;;;;;;19.15;8.75;;;14.10;99.90;;;;;;5006629;28;20052;-68
2022/08/21 05:29:56;;;;;;;13.70;8.35;;;14.20;99.90;;;;;;5022572;28;20452;-68
2022/08/21 05:32:23;;;;;;;14.43;8.57;;;14.20;99.90;;;;;;5026296;28;20129;-68
2022/08/21 05:34:48;;;;;;;12.43;8.10;;;14.30;99.90;;;;;;5006175;28;20053;-68
2022/08/21 05:37:14;;;;;;;14.32;8.55;;;14.40;99.90;;;;;;4988354;28;20054;-69
2022/08/21 05:39:40;;;;;;;18.70;8.57;;;14.40;99.90;;;;;;5021137;28;20050;-68
2022/08/21 05:42:06;;;;;;;17.05;8.10;;;14.40;99.90;;;;;;5025103;28;20061;-67
2022/08/21 05:44:32;;;;;;;17.83;8.65;;;14.60;99.90;;;;;;5025167;28;20828;-69
2022/08/21 05:47:09;;;;;;;18.67;8.40;;;14.70;99.90;;;;;;4989181;28;20054;-69
2022/08/21 05:49:35;;;;;;;12.43;7.68;;;14.80;99.90;;;;;;5019144;28;20050;-68
2022/08/21 05:52:02;;;;;;;14.95;7.63;;;14.90;99.90;;;;;;5020412;28;20057;-69
2022/08/21 05:54:28;;;;;;;17.50;8.32;;;15.00;99.90;;;;;;5023428;28;20056;-69
2022/08/21 05:56:53;;;;;;;14.82;7.63;;;15.10;99.90;;;;;;5005886;28;20428;-69
2022/08/21 05:59:19;;;;;;;14.95;8.27;;;15.20;99.90;;;;;;5005047;28;20468;-69
2022/08/21 06:01:45;;;;;;;15.48;7.78;;;15.30;99.90;;;;;;5022518;28;20053;-69
2022/08/21 06:04:12;;;;;;;12.95;7.38;;;15.50;99.90;;;;;;5005615;28;20052;-69
2022/08/21 06:06:38;;;;;;;18.13;7.70;;;15.60;99.90;;;;;;4990187;28;20139;-69
2022/08/21 06:09:04;;;;;;;15.30;7.60;;;15.80;99.90;;;;;;5019764;28;20096;-69
2022/08/21 06:11:31;;;;;;;13.38;7.07;;;15.80;99.90;;;;;;5023280;28;20052;-69
2022/08/21 06:13:57;;;;;;;15.10;6.93;;;15.90;99.90;;;;;;5003799;28;20030;-69
2022/08/21 06:16:23;;;;;;;15.27;7.07;;;15.90;99.90;;;;;;4994562;28;20045;-70
2022/08/21 06:18:49;;;;;;;14.45;6.75;;;16.00;99.90;;;;;;4988885;28;20048;-70
2022/08/21 06:21:15;;;;;;;14.15;6.50;;;16.00;99.90;;;;;;5030766;28;20049;-69
2022/08/21 06:23:42;;;;;;;12.63;6.60;;;16.10;99.90;;;;;;5022685;28;20042;-69
2022/08/21 06:26:10;;;;;;;13.13;6.53;;;16.20;99.90;;;;;;5000988;28;20544;-70
2022/08/21 06:28:37;;;;;;;15.52;6.88;;;16.20;99.90;;;;;;4992172;28;20509;-70
2022/08/21 06:31:18;;;;;;;14.00;7.20;;;16.30;99.90;;;;;;5024943;28;20050;-69
2022/08/21 06:33:45;;;;;;;11.38;6.88;;;16.30;99.90;;;;;;5024657;28;20774;-69
2022/08/21 06:36:11;;;;;;;16.08;7.00;;;16.30;99.90;;;;;;4995821;28;20087;-70
2022/08/21 06:38:37;;;;;;;11.00;6.82;;;16.40;99.90;;;;;;4992915;28;20053;-69
2022/08/21 06:41:03;;;;;;;14.98;7.15;;;16.50;99.90;;;;;;5024224;28;20064;-69
2022/08/21 06:43:29;;;;;;;15.02;6.60;;;16.50;99.90;;;;;;5004470;28;20052;-70
2022/08/21 06:45:55;;;;;;;12.60;6.65;;;16.60;99.90;;;;;;5024655;28;20053;-70
2022/08/21 06:48:20;;;;;;;16.70;6.78;;;16.60;99.90;;;;;;5004616;28;20045;-69
2022/08/21 06:50:47;;;;;;;13.63;6.78;;;16.70;99.90;;;;;;5004163;28;20045;-70
2022/08/21 06:53:14;;;;;;;10.43;6.28;;;16.80;99.90;;;;;;5024560;28;20049;-70
2022/08/21 06:55:41;;;;;;;15.95;6.53;;;16.90;99.90;;;;;;5021070;28;20060;-70
2022/08/21 06:58:08;;;;;;;13.80;6.47;;;17.00;99.90;;;;;;5003764;28;20645;-69
2022/08/21 07:00:37;;;;;;;16.40;6.57;;;17.10;99.90;;;;;;5022880;28;20058;-70
2022/08/21 07:03:03;;;;;;;13.15;6.10;;;17.10;99.90;;;;;;5020117;28;20129;-70
2022/08/21 07:05:30;;;;;;;10.02;5.70;;;17.10;99.90;;;;;;5007448;28;20156;-69
2022/08/21 07:07:56;;;;;;;12.18;5.63;;;17.30;99.90;;;;;;5000667;28;20136;-69
2022/08/21 07:10:23;;;;;;;11.43;4.45;;;17.40;99.90;;;;;;5020392;28;20096;-70
2022/08/21 07:12:53;;;;;;;8.52;4.32;;;17.60;99.90;;;;;;5004927;28;20428;-70
2022/08/21 07:15:19;;;;;;;9.00;3.77;;;17.70;99.90;;;;;;5021357;28;20061;-70
2022/08/21 07:17:45;;;;;;;9.65;3.83;;;17.70;99.90;;;;;;5005701;28;20038;-69
2022/08/21 07:20:11;;;;;;;13.00;3.90;;;17.80;99.90;;;;;;5019984;28;20041;-70
2022/08/21 07:22:38;;;;;;;9.00;3.67;;;17.90;99.90;;;;;;5022129;28;20117;-70
2022/08/21 07:25:05;;;;;;;11.02;3.70;;;18.00;99.90;;;;;;5007795;28;20100;-71
2022/08/21 07:27:31;;;;;;;12.70;4.13;;;18.10;99.90;;;;;;4986932;28;20076;-69
2022/08/21 07:29:57;;;;;;;9.35;3.53;;;18.20;99.90;;;;;;5004293;28;20042;-71
2022/08/21 07:32:23;;;;;;;12.68;3.33;;;18.20;99.90;;;;;;5004678;28;20132;-69
2022/08/21 07:34:49;;;;;;;10.25;3.53;;;18.20;99.90;;;;;;5021808;28;20140;-71
2022/08/21 07:37:14;;;;;;;9.10;3.00;;;18.40;99.90;;;;;;4989521;28;20057;-70
2022/08/21 07:39:40;;;;;;;10.00;3.05;;;18.40;99.90;;;;;;4983645;28;20054;-69
2022/08/21 07:42:06;;;;;;;10.20;3.28;;;18.40;99.90;;;;;;5022347;28;20056;-68
2022/08/21 07:44:34;;;;;;;10.90;3.10;;;18.40;99.90;;;;;;5003270;28;20049;-71
2022/08/21 07:47:00;;;;;;;12.20;3.03;;;18.50;99.90;;;;;;5012854;28;20514;-69
2022/08/21 07:49:26;;;;;;;6.60;2.63;;;18.50;99.90;;;;;;5019326;28;20124;-70
2022/08/21 07:51:52;;;;;;;10.65;3.42;;;18.70;99.90;;;;;;5022543;28;20125;-68
2022/08/21 07:54:17;;;;;;;11.13;3.15;;;18.80;99.90;;;;;;5021251;28;20115;-69
2022/08/21 07:56:43;;;;;;;10.18;3.30;;;18.80;99.90;;;;;;4991614;28;20081;-68
2022/08/21 07:59:09;;;;;;;10.57;2.95;;;18.80;99.90;;;;;;4989972;28;20104;-69
2022/08/21 08:01:35;;;;;;;8.35;2.97;;;19.00;99.90;;;;;;5020896;28;20040;-70
2022/08/21 08:04:00;;;;;;;8.73;2.92;;;19.00;99.90;;;;;;5004376;28;20056;-69
2022/08/21 08:06:26;;;;;;;11.10;2.97;;;19.00;99.90;;;;;;4994963;28;20203;-69
2022/08/21 08:08:52;;;;;;;13.63;3.20;;;19.10;99.90;;;;;;5017656;28;20053;-69
2022/08/21 08:11:17;;;;;;;11.68;3.00;;;19.20;99.90;;;;;;5002784;28;20042;-69
2022/08/21 08:13:47;;;;;;;9.13;2.85;;;19.30;99.90;;;;;;5021832;28;20049;-68
2022/08/21 08:16:14;;;;;;;14.63;3.10;;;19.20;99.90;;;;;;5017996;28;20041;-70
2022/08/21 08:18:41;;;;;;;9.70;2.80;;;19.30;99.90;;;;;;5020476;28;20566;-69
2022/08/21 08:21:08;;;;;;;10.63;2.85;;;19.40;99.90;;;;;;5025409;28;20093;-69
2022/08/21 08:23:34;;;;;;;12.02;2.90;;;19.40;99.90;;;;;;5009034;28;20123;-69
2022/08/21 08:26:02;;;;;;;11.23;2.88;;;19.50;99.90;;;;;;5008091;28;20183;-69
2022/08/21 08:28:29;;;;;;;12.20;2.97;;;19.50;99.90;;;;;;4993825;28;20051;-69
2022/08/21 08:30:55;;;;;;;11.15;2.85;;;19.60;99.90;;;;;;5025265;28;20040;-70
2022/08/21 08:33:22;;;;;;;10.63;2.70;;;19.80;99.90;;;;;;5008934;28;20054;-69
2022/08/21 08:35:49;;;;;;;10.50;2.92;;;19.90;99.90;;;;;;5010540;28;20052;-70
2022/08/21 08:38:18;;;;;;;15.77;3.35;;;19.80;99.90;;;;;;4995660;28;20052;-69
2022/08/21 08:40:44;;;;;;;11.50;2.92;;;19.80;99.90;;;;;;5011064;28;20057;-69
2022/08/21 08:43:14;;;;;;;15.13;3.60;;;19.80;99.90;;;;;;5006381;28;20061;-69
2022/08/21 08:45:46;;;;;;;11.77;3.40;;;20.00;99.90;;;;;;5026590;28;20087;-69
2022/08/21 08:48:20;;;;;;;9.13;3.20;;;20.00;99.90;;;;;;4990332;28;20044;-68
2022/08/21 08:50:52;;;;;;;12.35;3.25;;;19.90;99.90;;;;;;5007585;28;20049;-69
2022/08/21 08:53:23;;;;;;;14.52;3.30;;;20.00;99.90;;;;;;5023805;28;20198;-69
2022/08/21 08:55:51;;;;;;;13.50;3.00;;;19.90;99.90;;;;;;5024962;28;20049;-69
2022/08/21 08:58:30;;;;;;;11.50;3.63;;;20.00;99.90;;;;;;4988791;28;20034;-70
2022/08/21 09:00:56;;;;;;;12.63;3.30;;;19.80;99.90;;;;;;5007375;28;20045;-70
2022/08/21 09:03:23;;;;;;;12.45;3.55;;;20.10;99.90;;;;;;5027784;28;20053;-69
2022/08/21 09:06:19;;;;;;;11.35;3.03;;;20.10;99.90;;;;;;5025554;28;20479;-69
2022/08/21 09:08:58;;;;;;;9.70;2.65;;;20.30;99.90;;;;;;5019897;28;20413;-69
2022/08/21 09:11:56;;;;;;;12.52;3.33;;;20.40;99.90;;;;;;5023454;28;20673;-69
2022/08/21 09:14:40;;;;;;;16.45;3.63;;;20.50;99.90;;;;;;5026097;28;20053;-69
2022/08/21 09:17:21;;;;;;;10.25;3.25;;;20.50;99.90;;;;;;5005032;28;20123;-69
2022/08/21 09:19:53;;;;;;;;;;;20.60;99.90;;;;;;5003314;28;20049;-69
2022/08/21 09:22:27;;;;;;;11.50;3.40;;;20.50;99.90;;;;;;5011112;28;20367;-69
2022/08/21 09:25:22;;;;;;;13.98;3.63;;;20.60;99.90;;;;;;5014225;28;20053;-69
2022/08/21 09:27:48;;;;;;;14.93;2.90;;;20.60;99.90;;;;;;4990595;28;20141;-68
2022/08/21 09:30:14;;;;;;;11.13;3.17;;;20.80;99.90;;;;;;5001696;28;20124;-69
2022/08/21 09:32:41;;;;;;;10.98;2.83;;;20.90;99.90;;;;;;5005676;28;20637;-70
2022/08/21 09:35:13;;;;;;;7.65;2.65;;;20.90;99.90;;;;;;5024829;28;20076;-68
2022/08/21 09:37:57;;;;;;;9.02;2.47;;;20.80;99.90;;;;;;4987922;28;20089;-69
2022/08/21 09:40:32;;;;;;;12.40;3.13;;;20.90;99.90;;;;;;5024645;28;20065;-69
2022/08/21 09:43:02;;;;;;;9.48;2.60;;;21.20;99.90;;;;;;5020918;28;20049;-69
2022/08/21 09:45:28;;;;;;;10.25;2.65;;;21.20;99.90;;;;;;5024183;28;20420;-69
2022/08/21 09:47:54;;;;;;;9.85;2.63;;;20.90;99.90;;;;;;5005113;28;20706;-69
2022/08/21 09:50:23;;;;;;;10.45;2.60;;;20.80;99.90;;;;;;5002377;28;20057;-69
2022/08/21 09:52:59;;;;;;;14.38;3.03;;;21.00;99.90;;;;;;5005781;28;20057;-69
2022/08/21 09:58:19;;;;;;;8.88;2.33;;;21.20;99.90;;;;;;5007172;28;20048;-69
2022/08/21 10:00:45;;;;;;;10.63;2.60;;;21.30;99.90;;;;;;5006436;28;20061;-68
2022/08/21 10:03:21;;;;;;;10.18;2.72;;;21.40;99.90;;;;;;5023145;28;20099;-69
2022/08/21 10:05:55;;;;;;;10.32;2.40;;;21.60;99.90;;;;;;5025918;28;20378;-70
2022/08/21 10:08:22;;;;;;;10.95;2.55;;;21.60;99.90;;;;;;4989846;28;20064;-69
2022/08/21 10:10:56;;;;;;;10.80;2.25;;;21.70;99.90;;;;;;5005356;28;20548;-69
2022/08/21 10:14:04;;;;;;;10.45;2.03;;;21.80;99.90;;;;;;5003994;28;20449;-69
2022/08/21 10:16:52;;;;;;;8.27;2.25;;;22.00;99.90;;;;;;4935811;28;20047;-69
2022/08/21 10:19:39;;;;;;;11.73;2.45;;;21.70;99.90;;;;;;4998413;28;20079;-69
2022/08/21 10:22:16;;;;;;;10.48;2.20;;;21.80;99.90;;;;;;5017164;28;20050;-68
2022/08/21 10:25:02;;;;;;;9.50;2.45;;;22.00;99.90;;;;;;5004028;28;20096;-69
2022/08/21 10:27:37;;;;;;;9.45;2.30;;;21.70;99.90;;;;;;5006217;28;20037;-70
2022/08/21 10:30:12;;;;;;;8.15;2.25;;;22.00;99.90;;;;;;5015956;28;20100;-70
2022/08/21 10:32:46;;;;;;;11.55;2.40;;;21.90;99.90;;;;;;5019900;28;20045;-69
2022/08/21 10:35:33;;;;;;;8.23;2.60;;;21.80;99.90;;;;;;5005121;28;20052;-69
2022/08/21 10:38:21;;;;;;;11.35;2.55;;;21.80;99.90;;;;;;4985134;28;20084;-70
2022/08/21 10:41:10;;;;;;;10.10;2.42;;;21.80;99.90;;;;;;5016594;28;20103;-70
2022/08/21 10:44:13;;;;;;;9.65;2.28;;;21.80;99.90;;;;;;4980874;28;20049;-69
2022/08/21 10:46:55;;;;;;;7.53;2.10;;;21.60;99.90;;;;;;4957259;28;20053;-69
2022/08/21 10:49:38;;;;;;;8.57;2.28;;;21.50;99.90;;;;;;5004576;28;20033;-69
2022/08/21 10:52:32;;;;;;;7.35;2.22;;;21.40;99.90;;;;;;5022660;28;20041;-68
2022/08/21 10:55:16;;;;;;;9.70;2.53;;;21.50;99.90;;;;;;5023639;28;20041;-69
2022/08/21 10:58:00;;;;;;;8.63;2.38;;;21.90;99.90;;;;;;5003630;28;20129;-69
2022/08/21 11:00:49;;;;;;;11.18;2.30;;;22.20;99.90;;;;;;5023806;28;20049;-69
2022/08/21 11:03:34;;;;;;;11.55;2.33;;;22.30;99.90;;;;;;5020787;28;20681;-69
2022/08/21 11:06:17;;;;;;;8.43;2.45;;;22.40;99.90;;;;;;5002652;28;20124;-69
2022/08/21 11:08:49;;;;;;;9.15;2.40;;;22.20;99.90;;;;;;5015781;28;20456;-69
2022/08/21 11:11:19;;;;;;;9.70;2.25;;;22.60;99.90;;;;;;5006864;28;20255;-69
2022/08/21 11:13:51;;;;;;;6.87;1.90;;;22.50;99.90;;;;;;5003587;28;20104;-69
2022/08/21 11:16:35;;;;;;;9.70;1.95;;;22.80;99.90;;;;;;4995332;28;20046;-69
2022/08/21 11:19:27;;;;;;;8.98;2.20;;;23.00;99.90;;;;;;5021359;28;20103;-70
2022/08/21 11:22:15;;;;;;;8.95;2.28;;;22.80;99.90;;;;;;5003007;28;20121;-69
2022/08/21 11:24:56;;;;;;;11.32;2.60;;;22.60;99.90;;;;;;4985176;28;20412;-68
2022/08/21 11:27:38;;;;;;;6.28;2.10;;;22.60;99.90;;;;;;5002683;28;20542;-69
2022/08/21 11:30:06;;;;;;;6.28;2.22;;;22.80;99.90;;;;;;5024336;28;20537;-69
2022/08/21 11:32:50;;;;;;;9.57;1.92;;;23.20;99.90;;;;;;5022124;28;20585;-69
2022/08/21 11:35:27;;;;;;;7.63;2.25;;;23.30;99.90;;;;;;5003825;28;20045;-69
2022/08/21 11:38:08;;;;;;;5.90;1.90;;;23.50;99.90;;;;;;5009088;28;20054;-69
2022/08/21 11:40:39;;;;;;;7.38;1.83;;;23.40;99.90;;;;;;5005112;28;20128;-70
2022/08/21 11:43:11;;;;;;;5.47;1.50;;;23.00;99.90;;;;;;5022089;28;20069;-69
2022/08/21 11:45:52;;;;;;;6.97;1.70;;;23.10;99.90;;;;;;5008040;28;20121;-69
2022/08/21 11:49:00;;;;;;;5.38;1.58;;;23.10;99.90;;;;;;5005458;28;20196;-68
2022/08/21 11:51:52;;;;;;;6.78;1.60;;;22.90;99.90;;;;;;4994523;28;20061;-68
2022/08/21 11:54:36;;;;;;;5.15;1.48;;;22.40;99.90;;;;;;5022882;28;20413;-68
2022/08/21 11:57:30;;;;;;;7.38;1.70;;;22.50;99.90;;;;;;5009185;28;20041;-68
2022/08/21 12:00:08;;;;;;;6.03;1.70;;;22.70;99.90;;;;;;4972288;28;20046;-68
2022/08/21 12:02:38;;;;;;;6.32;1.42;;;22.50;99.90;;;;;;5025616;28;20061;-68
2022/08/21 12:05:08;;;;;;;4.57;1.77;;;22.70;99.90;;;;;;5008483;28;20055;-69
2022/08/21 12:07:40;;;;;;;5.72;1.50;;;22.70;99.90;;;;;;4991957;28;20130;-68
2022/08/21 12:10:17;;;;;;;4.90;1.50;;;22.80;99.90;;;;;;5028876;28;20122;-68
2022/08/21 12:12:44;;;;;;;6.32;1.55;;;22.70;99.90;;;;;;5006556;28;20102;-68
2022/08/21 12:15:22;;;;;;;5.53;1.77;;;22.70;99.90;;;;;;5006917;28;20045;-68
2022/08/21 12:17:52;;;;;;;5.13;1.30;;;23.00;99.90;;;;;;5009346;28;20057;-69
2022/08/21 12:20:21;;;;;;;6.25;1.30;;;23.20;99.90;;;;;;5006954;28;20344;-68
2022/08/21 12:23:01;;;;;;;5.20;1.23;;;23.10;99.90;;;;;;4991579;28;20854;-69
2022/08/21 12:25:40;;;;;;;6.70;1.60;;;23.10;99.90;;;;;;5023999;28;20041;-69
2022/08/21 12:28:14;;;;;;;9.40;1.50;;;23.20;99.90;;;;;;4990050;28;20052;-68
2022/08/21 12:30:45;;;;;;;4.43;1.33;;;23.50;99.90;;;;;;5023562;28;20037;-68
2022/08/21 12:33:20;;;;;;;4.57;1.33;;;23.50;99.90;;;;;;5003497;28;20042;-68
2022/08/21 12:35:49;;;;;;;6.00;1.35;;;23.50;99.90;;;;;;5006067;28;20046;-68
2022/08/21 12:38:23;;;;;;;4.78;1.30;;;23.40;99.90;;;;;;4992733;28;20598;-68
2022/08/21 12:40:54;;;;;;;3.45;0.93;;;23.20;99.90;;;;;;5007238;28;20116;-68
2022/08/21 12:43:29;;;;;;;6.15;1.40;;;23.30;99.90;;;;;;5017975;28;20046;-70
2022/08/21 12:45:55;;;;;;;5.95;1.55;;;23.40;99.90;;;;;;5024617;28;20183;-69
2022/08/21 12:48:35;;;;;;;2.85;1.20;;;23.60;99.90;;;;;;5006813;28;20052;-69
2022/08/21 12:51:07;;;;;;;6.68;1.63;;;23.50;99.90;;;;;;5022322;28;20038;-68
2022/08/21 12:53:56;;;;;;;7.38;1.50;;;23.30;99.90;;;;;;5020865;28;20033;-68
2022/08/21 12:56:31;;;;;;;5.75;1.30;;;23.00;99.90;;;;;;5010619;28;20092;-68
2022/08/21 12:59:05;;;;;;;5.90;1.35;;;23.00;99.90;;;;;;5039250;28;20094;-68